createdAt,value
2023-06-20T00:00:32.528Z,22.87
2023-06-20T00:01:32.535Z,22.84
2023-06-20T00:02:32.533Z,22.95
2023-06-20T00:03:32.559Z,22.87
2023-06-20T00:04:32.610Z,22.66
2023-06-20T00:05:32.602Z,22.73
2023-06-20T00:06:32.616Z,22.77
2023-06-20T00:07:32.670Z,22.70
2023-06-20T00:08:32.739Z,22.67
2023-06-20T00:09:32.822Z,22.62
2023-06-20T00:10:32.804Z,22.49
2023-06-20T00:11:32.813Z,22.77
2023-06-20T00:12:32.809Z,22.64
2023-06-20T00:13:32.826Z,22.64
2023-06-20T00:14:32.860Z,22.71
2023-06-20T00:15:32.829Z,22.73
2023-06-20T00:16:32.818Z,22.84
2023-06-20T00:17:32.929Z,22.78
2023-06-20T00:18:32.956Z,22.89
2023-06-20T00:19:33.033Z,22.74
2023-06-20T00:20:33.052Z,22.64
2023-06-20T00:21:33.077Z,22.59
2023-06-20T00:22:33.124Z,22.49
2023-06-20T00:23:33.186Z,22.56
2023-06-20T00:24:33.251Z,22.55
2023-06-20T00:25:33.278Z,22.68
2023-06-20T00:26:33.346Z,22.68
2023-06-20T00:27:33.365Z,22.83
2023-06-20T00:28:33.444Z,22.94
2023-06-20T00:29:33.440Z,23.07
2023-06-20T00:30:33.492Z,22.91
2023-06-20T00:31:33.477Z,23.02
2023-06-20T00:32:33.567Z,22.68
2023-06-20T00:33:33.572Z,22.76
2023-06-20T00:34:33.595Z,22.86
2023-06-20T00:35:33.677Z,22.86
2023-06-20T00:36:33.694Z,23.00
2023-06-20T00:37:33.737Z,23.08
2023-06-20T00:38:33.792Z,23.18
2023-06-20T00:39:33.817Z,23.32
2023-06-20T00:40:33.839Z,23.23
2023-06-20T00:41:33.902Z,23.22
2023-06-20T00:42:33.876Z,23.17
2023-06-20T00:43:33.904Z,23.26
2023-06-20T00:44:33.980Z,23.39
2023-06-20T00:45:34.202Z,23.36
2023-06-20T00:46:34.255Z,23.44
2023-06-20T00:47:34.066Z,23.52
2023-06-20T00:48:34.176Z,23.50
2023-06-20T00:49:34.089Z,23.63
2023-06-20T00:50:34.081Z,23.67
2023-06-20T00:51:34.155Z,23.74
2023-06-20T00:52:34.224Z,23.79
2023-06-20T00:53:34.333Z,23.80
2023-06-20T00:54:34.316Z,23.52
2023-06-20T00:55:34.341Z,23.63
2023-06-20T00:56:34.360Z,23.70
2023-06-20T00:57:34.383Z,23.67
2023-06-20T00:58:34.390Z,23.55
2023-06-20T00:59:34.436Z,23.62
2023-06-20T01:00:34.528Z,23.60
2023-06-20T01:01:34.614Z,23.56
2023-06-20T01:02:34.505Z,23.63
2023-06-20T01:03:34.615Z,23.65
2023-06-20T01:04:34.561Z,23.49
2023-06-20T01:05:34.576Z,23.41
2023-06-20T01:06:34.601Z,23.39
2023-06-20T01:07:34.632Z,23.36
2023-06-20T01:08:34.635Z,23.10
2023-06-20T01:09:34.703Z,23.01
2023-06-20T01:10:34.674Z,23.11
2023-06-20T01:11:34.716Z,23.14
2023-06-20T01:12:34.738Z,23.00
2023-06-20T01:13:34.766Z,23.10
2023-06-20T01:14:34.775Z,23.05
2023-06-20T01:15:34.859Z,23.15
2023-06-20T01:16:34.927Z,23.22
2023-06-20T01:17:34.941Z,23.10
2023-06-20T01:18:34.990Z,23.17
2023-06-20T01:19:34.941Z,23.22
2023-06-20T01:20:35.002Z,23.17
2023-06-20T01:21:34.967Z,23.23
2023-06-20T01:22:35.035Z,23.18
2023-06-20T01:23:35.056Z,23.18
2023-06-20T01:24:35.116Z,22.84
2023-06-20T01:25:35.065Z,22.86
2023-06-20T01:26:35.100Z,22.77
2023-06-20T01:27:35.138Z,22.62
2023-06-20T01:28:35.218Z,22.49
2023-06-20T01:29:35.132Z,22.42
2023-06-20T01:30:35.174Z,22.31
2023-06-20T01:31:35.191Z,22.32
2023-06-20T01:32:35.252Z,22.45
2023-06-20T01:33:35.209Z,22.46
2023-06-20T01:34:35.259Z,22.38
2023-06-20T01:35:35.270Z,22.47
2023-06-20T01:36:35.330Z,22.60
2023-06-20T01:37:35.373Z,22.66
2023-06-20T01:38:35.429Z,22.70
2023-06-20T01:39:35.415Z,22.62
2023-06-20T01:40:35.471Z,22.59
2023-06-20T01:41:35.519Z,22.60
2023-06-20T01:42:35.563Z,22.42
2023-06-20T01:43:35.596Z,22.42
2023-06-20T01:44:35.648Z,22.25
2023-06-20T01:45:35.721Z,22.31
2023-06-20T01:46:35.820Z,22.47
2023-06-20T01:47:35.863Z,22.63
2023-06-20T01:48:35.865Z,22.71
2023-06-20T01:49:35.864Z,22.53
2023-06-20T01:50:35.885Z,22.46
2023-06-20T01:51:35.939Z,22.38
2023-06-20T01:52:36.036Z,22.29
2023-06-20T01:53:36.027Z,22.05
2023-06-20T01:54:36.047Z,22.11
2023-06-20T01:55:36.074Z,21.94
2023-06-20T01:56:36.116Z,21.64
2023-06-20T01:57:36.145Z,21.46
2023-06-20T01:58:36.174Z,21.50
2023-06-20T01:59:36.255Z,21.56
2023-06-20T02:00:36.267Z,21.58
2023-06-20T02:01:36.340Z,21.66
2023-06-20T02:02:36.431Z,21.57
2023-06-20T02:03:36.423Z,21.78
2023-06-20T02:04:36.420Z,21.56
2023-06-20T02:05:36.427Z,21.73
2023-06-20T02:06:36.486Z,21.77
2023-06-20T02:07:36.523Z,21.78
2023-06-20T02:08:36.551Z,21.88
2023-06-20T02:09:36.598Z,21.78
2023-06-20T02:10:36.604Z,21.76
2023-06-20T02:11:36.655Z,21.88
2023-06-20T02:12:36.709Z,21.93
2023-06-20T02:13:36.768Z,21.95
2023-06-20T02:14:36.852Z,21.97
2023-06-20T02:15:36.772Z,22.08
2023-06-20T02:16:36.938Z,22.11
2023-06-20T02:17:36.955Z,22.22
2023-06-20T02:18:36.928Z,22.45
2023-06-20T02:19:36.945Z,22.56
2023-06-20T02:20:36.933Z,22.70
2023-06-20T02:21:36.936Z,22.84
2023-06-20T02:22:36.903Z,22.98
2023-06-20T02:23:36.976Z,23.07
2023-06-20T02:24:36.986Z,23.14
2023-06-20T02:25:37.010Z,23.15
2023-06-20T02:26:36.922Z,23.18
2023-06-20T02:27:36.949Z,23.22
2023-06-20T02:28:36.871Z,23.30
2023-06-20T02:29:36.925Z,23.39
2023-06-20T02:30:36.971Z,23.44
2023-06-20T02:31:36.856Z,23.44
2023-06-20T02:32:36.891Z,23.50
2023-06-20T02:33:36.867Z,23.52
2023-06-20T02:34:36.785Z,23.50
2023-06-20T02:35:36.822Z,23.52
2023-06-20T02:36:36.845Z,23.56
2023-06-20T02:37:36.979Z,23.63
2023-06-20T02:38:37.032Z,23.65
2023-06-20T02:39:36.999Z,23.73
2023-06-20T02:40:37.081Z,23.77
2023-06-20T02:41:37.124Z,23.81
2023-06-20T02:42:37.196Z,23.84
2023-06-20T02:43:37.242Z,23.88
2023-06-20T02:44:37.336Z,23.93
2023-06-20T02:45:37.342Z,23.96
2023-06-20T02:46:37.487Z,24.00
2023-06-20T02:47:37.582Z,24.00
2023-06-20T02:48:37.572Z,24.03
2023-06-20T02:49:37.607Z,24.00
2023-06-20T02:50:37.634Z,24.04
2023-06-20T02:51:37.697Z,23.99
2023-06-20T02:52:37.769Z,23.84
2023-06-20T02:53:37.896Z,23.66
2023-06-20T02:54:37.875Z,23.55
2023-06-20T02:55:37.932Z,23.53
2023-06-20T02:56:37.941Z,23.48
2023-06-20T02:57:37.999Z,23.23
2023-06-20T02:58:38.017Z,23.21
2023-06-20T02:59:38.017Z,23.10
2023-06-20T03:00:38.067Z,22.89
2023-06-20T03:01:38.130Z,22.74
2023-06-20T03:02:38.195Z,22.64
2023-06-20T03:03:38.288Z,22.63
2023-06-20T03:04:38.204Z,22.68
2023-06-20T03:05:38.216Z,22.70
2023-06-20T03:06:38.359Z,22.45
2023-06-20T03:07:38.261Z,22.38
2023-06-20T03:08:38.335Z,22.22
2023-06-20T03:09:38.295Z,22.18
2023-06-20T03:10:38.343Z,22.29
2023-06-20T03:11:38.446Z,22.50
2023-06-20T03:12:38.499Z,22.55
2023-06-20T03:13:38.502Z,22.46
2023-06-20T03:14:38.543Z,22.66
2023-06-20T03:15:38.610Z,22.60
2023-06-20T03:16:38.695Z,22.53
2023-06-20T03:17:38.728Z,22.60
2023-06-20T03:18:38.707Z,22.67
2023-06-20T03:19:38.715Z,22.68
2023-06-20T03:20:38.731Z,22.60
2023-06-20T03:21:38.747Z,22.71
2023-06-20T03:22:38.776Z,22.74
2023-06-20T03:23:38.787Z,22.67
2023-06-20T03:24:38.777Z,22.66
2023-06-20T03:25:38.782Z,22.45
2023-06-20T03:26:38.784Z,22.34
2023-06-20T03:27:38.774Z,22.27
2023-06-20T03:28:38.829Z,22.13
2023-06-20T03:29:38.794Z,22.18
2023-06-20T03:30:38.802Z,22.31
2023-06-20T03:31:38.877Z,22.31
2023-06-20T03:32:38.909Z,22.39
2023-06-20T03:33:38.934Z,22.40
2023-06-20T03:34:38.963Z,22.53
2023-06-20T03:35:39.029Z,22.55
2023-06-20T03:36:39.003Z,22.56
2023-06-20T03:37:39.046Z,22.31
2023-06-20T03:38:39.115Z,22.01
2023-06-20T03:39:39.162Z,21.93
2023-06-20T03:40:39.218Z,22.02
2023-06-20T03:41:39.287Z,22.00
2023-06-20T03:42:39.330Z,22.00
2023-06-20T03:43:39.431Z,22.15
2023-06-20T03:44:39.516Z,22.16
2023-06-20T03:45:39.572Z,22.18
2023-06-20T03:46:39.577Z,22.25
2023-06-20T03:47:39.624Z,22.34
2023-06-20T03:48:39.665Z,22.50
2023-06-20T03:49:40.620Z,22.63
2023-06-20T03:50:39.640Z,22.40
2023-06-20T03:51:39.715Z,22.34
2023-06-20T03:52:39.729Z,22.22
2023-06-20T03:53:39.792Z,22.04
2023-06-20T03:54:39.796Z,21.95
2023-06-20T03:55:39.822Z,21.80
2023-06-20T03:56:39.865Z,21.94
2023-06-20T03:57:39.820Z,22.04
2023-06-20T03:58:39.937Z,22.08
2023-06-20T03:59:39.925Z,22.00
2023-06-20T04:00:39.957Z,21.94
2023-06-20T04:01:39.937Z,21.93
2023-06-20T04:02:39.955Z,21.98
2023-06-20T04:03:40.063Z,22.08
2023-06-20T04:04:39.882Z,22.18
2023-06-20T04:05:39.900Z,22.35
2023-06-20T04:06:39.898Z,22.34
2023-06-20T04:07:39.933Z,22.28
2023-06-20T04:08:39.881Z,21.88
2023-06-20T04:09:39.877Z,21.80
2023-06-20T04:10:39.891Z,21.85
2023-06-20T04:11:39.841Z,22.04
2023-06-20T04:12:39.877Z,22.12
2023-06-20T04:13:39.932Z,21.94
2023-06-20T04:14:39.886Z,22.16
2023-06-20T04:15:40.003Z,22.16
2023-06-20T04:16:40.065Z,21.94
2023-06-20T04:17:40.138Z,22.02
2023-06-20T04:18:40.102Z,22.04
2023-06-20T04:19:40.118Z,21.98
2023-06-20T04:20:40.083Z,22.09
2023-06-20T04:21:40.080Z,22.00
2023-06-20T04:22:40.059Z,22.13
2023-06-20T04:23:40.096Z,22.23
2023-06-20T04:24:40.099Z,22.29
2023-06-20T04:25:40.081Z,22.36
2023-06-20T04:26:40.036Z,22.36
2023-06-20T04:27:40.048Z,22.47
2023-06-20T04:28:40.055Z,22.66
2023-06-20T04:29:40.037Z,22.76
2023-06-20T04:30:40.032Z,22.86
2023-06-20T04:31:40.010Z,23.01
2023-06-20T04:32:40.051Z,23.05
2023-06-20T04:33:39.996Z,23.17
2023-06-20T04:34:40.002Z,23.26
2023-06-20T04:35:39.963Z,23.28
2023-06-20T04:36:39.981Z,23.22
2023-06-20T04:37:40.071Z,23.25
2023-06-20T04:38:39.992Z,23.21
2023-06-20T04:39:40.036Z,23.21
2023-06-20T04:40:40.051Z,23.02
2023-06-20T04:41:40.098Z,23.00
2023-06-20T04:42:40.132Z,22.83
2023-06-20T04:43:40.802Z,22.74
2023-06-20T04:44:40.202Z,22.97
2023-06-20T04:45:40.262Z,23.04
2023-06-20T04:46:40.279Z,22.98
2023-06-20T04:47:40.354Z,22.87
2023-06-20T04:48:40.456Z,22.87
2023-06-20T04:49:40.339Z,23.00
2023-06-20T04:50:40.337Z,23.01
2023-06-20T04:51:40.349Z,23.07
2023-06-20T04:52:40.422Z,23.29
2023-06-20T04:53:40.390Z,23.18
2023-06-20T04:54:40.437Z,22.94
2023-06-20T04:55:40.428Z,22.98
2023-06-20T04:56:40.438Z,22.95
2023-06-20T04:57:40.465Z,22.82
2023-06-20T04:58:40.534Z,22.71
2023-06-20T04:59:40.537Z,22.62
2023-06-20T05:02:00.467Z,22.53
2023-06-20T05:03:00.413Z,22.62
2023-06-20T05:04:00.079Z,22.71
2023-06-20T05:05:00.425Z,22.74
2023-06-20T05:06:00.042Z,22.84
2023-06-20T05:07:00.331Z,22.91
2023-06-20T05:07:59.943Z,23.12
2023-06-20T05:09:00.003Z,23.21
2023-06-20T05:10:00.344Z,23.33
2023-06-20T05:11:00.323Z,23.36
2023-06-20T05:12:04.564Z,23.46
2023-06-20T05:13:00.953Z,23.62
2023-06-20T05:14:00.280Z,23.76
2023-06-20T05:14:59.978Z,23.88
2023-06-20T05:16:00.085Z,24.01
2023-06-20T05:16:59.992Z,24.11
2023-06-20T05:18:00.127Z,24.19
2023-06-20T05:19:00.493Z,24.28
2023-06-20T05:20:00.195Z,24.40
2023-06-20T05:21:00.508Z,24.56
2023-06-20T05:22:00.519Z,24.62
2023-06-20T05:23:00.244Z,24.69
2023-06-20T05:24:00.491Z,24.67
2023-06-20T05:25:00.567Z,24.79
2023-06-20T05:26:00.233Z,24.89
2023-06-20T05:27:00.258Z,25.00
2023-06-20T05:28:00.670Z,25.08
2023-06-20T05:29:00.300Z,25.13
2023-06-20T05:30:00.455Z,25.22
2023-06-20T05:31:00.658Z,25.19
2023-06-20T05:32:00.554Z,25.24
2023-06-20T05:33:00.568Z,25.19
2023-06-20T05:34:00.738Z,25.21
2023-06-20T05:35:00.619Z,25.29
2023-06-20T05:36:00.619Z,25.29
2023-06-20T05:37:00.613Z,24.98
2023-06-20T05:38:00.608Z,24.90
2023-06-20T05:39:01.109Z,24.95
2023-06-20T05:40:01.390Z,25.06
2023-06-20T05:41:00.708Z,25.06
2023-06-20T05:42:00.714Z,25.17
2023-06-20T05:43:00.750Z,25.24
2023-06-20T05:44:01.417Z,25.35
2023-06-20T05:45:00.863Z,25.44
2023-06-20T05:47:20.279Z,25.56
2023-06-20T05:48:20.059Z,25.53
2023-06-20T05:49:20.163Z,25.52
2023-06-20T05:50:20.069Z,25.58
2023-06-20T05:51:21.045Z,25.62
2023-06-20T05:52:20.384Z,25.70
2023-06-20T05:53:22.185Z,25.72
2023-06-20T05:54:20.216Z,25.79
2023-06-20T05:55:20.061Z,25.96
2023-06-20T05:56:20.554Z,26.13
2023-06-20T05:57:20.082Z,26.25
2023-06-20T05:58:20.253Z,26.38
2023-06-20T05:59:20.711Z,26.45
2023-06-20T06:00:20.334Z,26.37
2023-06-20T06:01:20.256Z,26.48
2023-06-20T06:02:20.309Z,26.45
2023-06-20T06:03:20.631Z,26.46
2023-06-20T06:04:20.619Z,26.44
2023-06-20T06:05:20.986Z,26.01
2023-06-20T06:06:20.542Z,26.08
2023-06-20T06:07:20.614Z,26.16
2023-06-20T06:08:20.676Z,25.90
2023-06-20T06:09:21.258Z,25.93
2023-06-20T06:10:20.717Z,25.96
2023-06-20T06:11:20.753Z,26.05
2023-06-20T06:12:20.781Z,26.13
2023-06-20T06:13:20.829Z,25.86
2023-06-20T06:14:20.994Z,25.96
2023-06-20T06:15:21.024Z,25.99
2023-06-20T06:16:21.082Z,25.97
2023-06-20T06:17:21.126Z,25.97
2023-06-20T06:18:21.075Z,26.13
2023-06-20T06:19:21.264Z,26.13
2023-06-20T06:20:21.172Z,25.93
2023-06-20T06:21:21.191Z,25.93
2023-06-20T06:22:21.356Z,25.80
2023-06-20T06:23:21.766Z,25.83
2023-06-20T06:24:21.384Z,25.93
2023-06-20T06:25:21.613Z,25.93
2023-06-20T06:26:21.906Z,25.58
2023-06-20T06:27:21.635Z,24.80
2023-06-20T06:28:21.827Z,24.15
2023-06-20T06:29:21.808Z,23.62
2023-06-20T06:30:21.594Z,23.99
2023-06-20T06:31:21.626Z,24.35
2023-06-20T06:32:21.878Z,24.60
2023-06-20T06:33:21.729Z,24.54
2023-06-20T06:34:21.630Z,24.67
2023-06-20T06:35:21.706Z,24.80
2023-06-20T06:36:21.747Z,24.79
2023-06-20T06:37:21.752Z,24.87
2023-06-20T06:38:21.563Z,25.27
2023-06-20T06:39:21.583Z,25.38
2023-06-20T06:40:21.772Z,25.48
2023-06-20T06:41:21.587Z,25.69
2023-06-20T06:42:21.682Z,25.82
2023-06-20T06:43:21.762Z,25.89
2023-06-20T06:44:21.720Z,25.86
2023-06-20T06:45:22.224Z,25.82
2023-06-20T06:46:21.944Z,25.91
2023-06-20T06:47:22.366Z,26.03
2023-06-20T06:48:21.996Z,26.05
2023-06-20T06:49:22.237Z,26.18
2023-06-20T06:50:22.144Z,26.17
2023-06-20T06:51:22.077Z,26.31
2023-06-20T06:52:22.494Z,26.35
2023-06-20T06:53:22.268Z,26.37
2023-06-20T06:54:22.175Z,26.48
2023-06-20T06:55:22.246Z,26.52
2023-06-20T06:56:22.592Z,26.59
2023-06-20T06:57:22.221Z,26.52
2023-06-20T06:58:23.220Z,26.51
2023-06-20T06:59:22.910Z,26.56
2023-06-20T07:00:22.721Z,26.55
2023-06-20T07:01:22.366Z,26.68
2023-06-20T07:02:22.402Z,26.85
2023-06-20T07:03:22.781Z,27.07
2023-06-20T07:04:22.725Z,27.21
2023-06-20T07:05:22.908Z,27.27
2023-06-20T07:06:22.481Z,27.34
2023-06-20T07:07:22.501Z,27.41
2023-06-20T07:08:22.963Z,27.33
2023-06-20T07:09:22.411Z,27.41
2023-06-20T07:10:22.510Z,27.52
2023-06-20T07:11:22.482Z,27.45
2023-06-20T07:12:22.424Z,27.31
2023-06-20T07:13:22.743Z,27.40
2023-06-20T07:14:22.793Z,27.49
2023-06-20T07:15:23.646Z,27.58
2023-06-20T07:16:22.869Z,27.68
2023-06-20T07:17:22.560Z,27.76
2023-06-20T07:18:22.378Z,27.86
2023-06-20T07:19:22.513Z,27.88
2023-06-20T07:20:22.469Z,27.96
2023-06-20T07:21:22.562Z,27.93
2023-06-20T07:22:23.195Z,27.83
2023-06-20T07:23:22.385Z,27.95
2023-06-20T07:24:24.427Z,27.97
2023-06-20T07:25:22.730Z,28.08
2023-06-20T07:26:22.412Z,28.04
2023-06-20T07:27:22.394Z,28.17
2023-06-20T07:28:22.523Z,28.21
2023-06-20T07:29:22.327Z,28.35
2023-06-20T07:30:22.870Z,28.43
2023-06-20T07:31:22.658Z,28.31
2023-06-20T07:32:22.658Z,28.47
2023-06-20T07:33:22.432Z,28.58
2023-06-20T07:34:22.602Z,28.71
2023-06-20T07:35:22.663Z,28.79
2023-06-20T07:36:22.789Z,28.80
2023-06-20T07:37:22.716Z,28.85
2023-06-20T07:38:22.882Z,28.92
2023-06-20T07:39:22.887Z,28.96
2023-06-20T07:40:22.923Z,28.82
2023-06-20T07:41:23.612Z,28.86
2023-06-20T07:42:23.024Z,28.73
2023-06-20T07:43:23.203Z,28.76
2023-06-20T07:44:23.050Z,28.85
2023-06-20T07:45:23.166Z,28.86
2023-06-20T07:46:23.696Z,29.00
2023-06-20T07:47:23.190Z,29.14
2023-06-20T07:48:23.766Z,29.18
2023-06-20T07:49:23.171Z,29.20
2023-06-20T07:50:23.176Z,29.30
2023-06-20T07:51:23.906Z,29.37
2023-06-20T07:52:23.912Z,29.33
2023-06-20T07:53:24.246Z,29.20
2023-06-20T07:54:23.519Z,29.30
2023-06-20T07:55:30.038Z,29.30
2023-06-20T07:56:23.912Z,29.48
2023-06-20T07:57:23.357Z,29.52
2023-06-20T07:58:23.339Z,29.54
2023-06-20T07:59:25.624Z,29.67
2023-06-20T08:00:24.616Z,29.71
2023-06-20T08:01:23.603Z,29.80
2023-06-20T08:02:23.421Z,29.82
2023-06-20T08:03:23.375Z,29.80
2023-06-20T08:04:23.381Z,29.65
2023-06-20T08:05:23.505Z,29.67
2023-06-20T08:06:23.811Z,29.79
2023-06-20T08:07:23.339Z,29.79
2023-06-20T08:08:23.321Z,29.88
2023-06-20T08:09:24.012Z,29.80
2023-06-20T08:10:23.334Z,29.83
2023-06-20T08:11:23.323Z,29.71
2023-06-20T08:12:23.318Z,29.68
2023-06-20T08:13:23.471Z,29.64
2023-06-20T08:14:23.439Z,29.75
2023-06-20T08:15:23.704Z,29.82
2023-06-20T08:16:24.069Z,29.90
2023-06-20T08:17:23.476Z,29.61
2023-06-20T08:18:23.479Z,29.69
2023-06-20T08:19:23.561Z,29.90
2023-06-20T08:20:23.553Z,30.00
2023-06-20T08:21:23.773Z,29.96
2023-06-20T08:22:23.485Z,29.96
2023-06-20T08:23:23.505Z,30.02
2023-06-20T08:24:23.561Z,30.05
2023-06-20T08:25:23.757Z,29.82
2023-06-20T08:26:24.560Z,29.73
2023-06-20T08:27:23.623Z,29.41
2023-06-20T08:28:23.725Z,29.09
2023-06-20T08:29:23.973Z,29.23
2023-06-20T08:30:23.828Z,29.43
2023-06-20T08:31:25.278Z,29.58
2023-06-20T08:32:23.894Z,29.75
2023-06-20T08:33:23.792Z,29.88
2023-06-20T08:34:23.696Z,29.95
2023-06-20T08:35:23.785Z,30.00
2023-06-20T08:36:24.723Z,30.06
2023-06-20T08:37:23.893Z,30.23
2023-06-20T08:38:23.729Z,30.30
2023-06-20T08:39:23.793Z,30.22
2023-06-20T08:40:24.484Z,30.33
2023-06-20T08:41:23.974Z,29.72
2023-06-20T08:42:23.883Z,29.86
2023-06-20T08:43:23.948Z,29.82
2023-06-20T08:44:24.060Z,29.97
2023-06-20T08:45:24.477Z,30.03
2023-06-20T08:46:24.514Z,30.12
2023-06-20T08:47:24.115Z,30.26
2023-06-20T08:48:24.008Z,30.40
2023-06-20T08:49:24.913Z,30.51
2023-06-20T08:50:24.317Z,30.60
2023-06-20T08:51:24.264Z,30.38
2023-06-20T08:52:24.005Z,30.44
2023-06-20T08:53:24.431Z,30.48
2023-06-20T08:54:24.245Z,30.60
2023-06-20T08:55:24.922Z,30.57
2023-06-20T08:56:24.369Z,30.34
2023-06-20T08:57:24.186Z,30.52
2023-06-20T08:58:24.180Z,30.54
2023-06-20T08:59:24.560Z,30.75
2023-06-20T09:00:24.572Z,30.86
2023-06-20T09:01:24.905Z,30.54
2023-06-20T09:02:24.671Z,30.10
2023-06-20T09:03:24.575Z,30.09
2023-06-20T09:04:24.528Z,30.10
2023-06-20T09:05:26.070Z,30.20
2023-06-20T09:06:25.036Z,30.27
2023-06-20T09:07:24.950Z,30.51
2023-06-20T09:08:26.680Z,30.33
2023-06-20T09:09:25.150Z,30.54
2023-06-20T09:10:25.840Z,30.72
2023-06-20T09:11:24.937Z,30.77
2023-06-20T09:12:25.359Z,30.90
2023-06-20T09:13:25.487Z,31.05
2023-06-20T09:14:25.663Z,31.23
2023-06-20T09:15:24.717Z,31.09
2023-06-20T09:16:24.708Z,30.99
2023-06-20T09:17:24.661Z,30.61
2023-06-20T09:18:24.612Z,30.48
2023-06-20T09:19:25.310Z,30.61
2023-06-20T09:20:25.191Z,30.67
2023-06-20T09:21:24.517Z,30.69
2023-06-20T09:22:24.847Z,30.86
2023-06-20T09:23:24.648Z,31.09
2023-06-20T09:24:25.695Z,31.13
2023-06-20T09:25:24.557Z,31.29
2023-06-20T09:26:24.732Z,31.32
2023-06-20T09:27:25.122Z,31.54
2023-06-20T09:28:24.600Z,31.61
2023-06-20T09:29:24.588Z,31.74
2023-06-20T09:30:26.174Z,31.72
2023-06-20T09:31:24.576Z,31.86
2023-06-20T09:32:25.031Z,31.84
2023-06-20T09:33:24.720Z,31.64
2023-06-20T09:34:24.537Z,31.88
2023-06-20T09:35:24.587Z,32.00
2023-06-20T09:36:24.693Z,32.13
2023-06-20T09:37:25.669Z,31.85
2023-06-20T09:38:25.065Z,32.04
2023-06-20T09:39:24.926Z,31.86
2023-06-20T09:40:25.495Z,31.98
2023-06-20T09:41:24.783Z,31.78
2023-06-20T09:42:25.428Z,31.54
2023-06-20T09:43:24.951Z,31.40
2023-06-20T09:44:24.898Z,31.68
2023-06-20T09:45:25.066Z,31.77
2023-06-20T09:46:25.383Z,31.77
2023-06-20T09:47:25.442Z,31.79
2023-06-20T09:48:25.009Z,31.72
2023-06-20T09:49:25.031Z,31.57
2023-06-20T09:50:25.448Z,31.12
2023-06-20T09:51:25.047Z,31.26
2023-06-20T09:52:25.627Z,31.20
2023-06-20T09:53:25.580Z,31.30
2023-06-20T09:54:25.159Z,31.44
2023-06-20T09:55:25.145Z,31.48
2023-06-20T09:56:25.596Z,31.60
2023-06-20T09:57:25.400Z,31.63
2023-06-20T09:58:26.174Z,31.48
2023-06-20T09:59:25.383Z,31.24
2023-06-20T10:00:25.938Z,31.61
2023-06-20T10:01:25.419Z,31.79
2023-06-20T10:02:30.941Z,31.68
2023-06-20T10:03:26.402Z,31.74
2023-06-20T10:04:25.409Z,31.78
2023-06-20T10:05:26.048Z,31.69
2023-06-20T10:06:25.538Z,32.05
2023-06-20T10:07:25.852Z,31.89
2023-06-20T10:08:25.380Z,32.08
2023-06-20T10:09:25.871Z,32.18
2023-06-20T10:10:25.485Z,32.08
2023-06-20T10:11:25.350Z,32.18
2023-06-20T10:12:25.407Z,32.29
2023-06-20T10:13:26.593Z,32.44
2023-06-20T10:14:25.256Z,32.57
2023-06-20T10:15:25.523Z,32.70
2023-06-20T10:16:25.622Z,32.66
2023-06-20T10:17:28.115Z,32.66
2023-06-20T10:18:25.420Z,32.75
2023-06-20T10:19:25.626Z,32.63
2023-06-20T10:20:25.703Z,32.40
2023-06-20T10:21:25.564Z,32.46
2023-06-20T10:22:25.358Z,32.56
2023-06-20T10:23:25.245Z,32.40
2023-06-20T10:24:25.624Z,32.20
2023-06-20T10:25:25.232Z,32.39
2023-06-20T10:26:26.173Z,32.56
2023-06-20T10:27:27.037Z,32.74
2023-06-20T10:28:25.297Z,32.60
2023-06-20T10:29:25.177Z,32.81
2023-06-20T10:30:26.048Z,32.92
2023-06-20T10:31:25.359Z,32.46
2023-06-20T10:32:25.201Z,31.75
2023-06-20T10:33:25.594Z,32.05
2023-06-20T10:34:25.550Z,32.27
2023-06-20T10:35:25.204Z,32.40
2023-06-20T10:36:25.138Z,32.46
2023-06-20T10:37:25.218Z,32.61
2023-06-20T10:38:25.331Z,32.71
2023-06-20T10:39:25.192Z,32.78
2023-06-20T10:40:26.455Z,32.95
2023-06-20T10:41:26.423Z,32.92
2023-06-20T10:42:25.185Z,33.08
2023-06-20T10:43:25.108Z,32.97
2023-06-20T10:44:25.168Z,33.22
2023-06-20T10:45:25.195Z,33.29
2023-06-20T10:46:25.433Z,33.39
2023-06-20T10:47:25.115Z,33.32
2023-06-20T10:48:25.292Z,33.34
2023-06-20T10:49:25.052Z,33.50
2023-06-20T10:50:25.451Z,33.56
2023-06-20T10:51:25.146Z,33.53
2023-06-20T10:52:25.125Z,33.49
2023-06-20T10:53:25.734Z,33.06
2023-06-20T10:54:25.157Z,33.09
2023-06-20T10:55:25.049Z,33.42
2023-06-20T10:56:25.154Z,33.29
2023-06-20T10:57:25.779Z,33.52
2023-06-20T10:58:32.560Z,33.68
2023-06-20T10:59:26.235Z,33.66
2023-06-20T11:00:25.808Z,33.73
2023-06-20T11:01:25.062Z,33.95
2023-06-20T11:02:25.105Z,34.07
2023-06-20T11:03:25.155Z,33.94
2023-06-20T11:04:25.683Z,34.10
2023-06-20T11:05:25.342Z,33.91
2023-06-20T11:06:25.220Z,33.95
2023-06-20T11:07:25.066Z,33.67
2023-06-20T11:08:25.044Z,33.63
2023-06-20T11:09:25.051Z,33.75
2023-06-20T11:10:25.954Z,33.74
2023-06-20T11:11:26.273Z,33.49
2023-06-20T11:12:25.283Z,33.49
2023-06-20T11:13:25.383Z,33.33
2023-06-20T11:15:45.886Z,33.26
2023-06-20T11:16:44.177Z,33.55
2023-06-20T11:17:44.092Z,33.50
2023-06-20T11:18:44.138Z,33.71
2023-06-20T11:19:44.321Z,33.56
2023-06-20T11:20:44.776Z,33.81
2023-06-20T11:21:44.675Z,33.95
2023-06-20T11:22:45.103Z,33.98
2023-06-20T11:23:44.242Z,34.12
2023-06-20T11:24:44.583Z,34.11
2023-06-20T11:25:45.213Z,34.11
2023-06-20T11:26:44.467Z,34.18
2023-06-20T11:27:44.320Z,34.22
2023-06-20T11:28:44.259Z,34.30
2023-06-20T11:29:44.953Z,34.19
2023-06-20T11:30:45.256Z,34.28
2023-06-20T11:31:44.584Z,34.02
2023-06-20T11:32:45.341Z,34.19
2023-06-20T11:33:46.758Z,34.01
2023-06-20T11:34:44.405Z,33.98
2023-06-20T11:35:44.407Z,34.07
2023-06-20T11:36:44.382Z,34.11
2023-06-20T11:37:44.486Z,34.21
2023-06-20T11:38:44.397Z,34.34
2023-06-20T11:39:47.350Z,34.43
2023-06-20T11:40:44.555Z,34.50
2023-06-20T11:41:44.403Z,34.49
2023-06-20T11:42:44.396Z,34.10
2023-06-20T11:43:44.453Z,34.15
2023-06-20T11:44:44.416Z,34.25
2023-06-20T11:45:44.337Z,34.45
2023-06-20T11:46:44.406Z,34.56
2023-06-20T11:47:44.410Z,34.59
2023-06-20T11:48:44.400Z,34.73
2023-06-20T11:49:44.299Z,34.83
2023-06-20T11:50:44.578Z,34.80
2023-06-20T11:51:44.324Z,34.77
2023-06-20T11:52:44.321Z,34.93
2023-06-20T11:53:45.189Z,34.93
2023-06-20T11:54:44.334Z,34.93
2023-06-20T11:55:44.298Z,35.10
2023-06-20T11:56:44.301Z,35.08
2023-06-20T11:57:44.243Z,34.90
2023-06-20T11:58:45.294Z,34.87
2023-06-20T11:59:44.292Z,34.90
2023-06-20T12:02:03.507Z,35.08
2023-06-20T12:03:03.405Z,35.08
2023-06-20T12:04:03.446Z,35.15
2023-06-20T12:05:05.870Z,35.21
2023-06-20T12:06:03.301Z,35.27
2023-06-20T12:07:03.288Z,35.11
2023-06-20T12:08:03.238Z,35.28
2023-06-20T12:09:03.341Z,35.36
2023-06-20T12:10:03.319Z,35.48
2023-06-20T12:11:03.847Z,35.57
2023-06-20T12:12:03.565Z,35.51
2023-06-20T12:13:03.301Z,35.60
2023-06-20T12:14:03.252Z,35.63
2023-06-20T12:15:03.215Z,35.55
2023-06-20T12:16:03.191Z,35.63
2023-06-20T12:17:03.239Z,35.32
2023-06-20T12:18:03.975Z,35.34
2023-06-20T12:19:03.235Z,35.39
2023-06-20T12:20:03.236Z,35.38
2023-06-20T12:21:04.586Z,35.31
2023-06-20T12:22:03.948Z,35.29
2023-06-20T12:23:03.157Z,35.46
2023-06-20T12:24:03.294Z,35.42
2023-06-20T12:25:03.232Z,35.38
2023-06-20T12:26:06.078Z,35.10
2023-06-20T12:27:03.902Z,35.12
2023-06-20T12:28:03.214Z,34.74
2023-06-20T12:29:03.238Z,34.71
2023-06-20T12:30:03.180Z,34.60
2023-06-20T12:31:03.228Z,34.50
2023-06-20T12:32:03.276Z,34.84
2023-06-20T12:33:03.188Z,35.04
2023-06-20T12:34:03.199Z,35.14
2023-06-20T12:35:03.162Z,35.29
2023-06-20T12:36:03.591Z,35.44
2023-06-20T12:37:05.727Z,35.18
2023-06-20T12:38:03.560Z,35.02
2023-06-20T12:39:04.453Z,35.10
2023-06-20T12:40:03.381Z,35.12
2023-06-20T12:41:08.597Z,35.22
2023-06-20T12:42:05.045Z,35.42
2023-06-20T12:43:03.287Z,35.63
2023-06-20T12:44:03.289Z,35.63
2023-06-20T12:45:03.552Z,35.66
2023-06-20T12:46:03.191Z,35.70
2023-06-20T12:47:03.187Z,35.83
2023-06-20T12:48:03.252Z,35.77
2023-06-20T12:49:03.836Z,35.86
2023-06-20T12:50:03.134Z,35.63
2023-06-20T12:51:03.134Z,35.39
2023-06-20T12:52:03.056Z,35.14
2023-06-20T12:53:03.073Z,35.19
2023-06-20T12:54:02.981Z,35.18
2023-06-20T12:55:03.139Z,35.24
2023-06-20T12:56:03.049Z,35.04
2023-06-20T12:57:03.056Z,35.31
2023-06-20T12:58:03.085Z,35.39